sensor_id;sensor_type;location;lat;lon;timestamp;P1;durP1;ratioP1;P2;durP2;ratioP2
8086;SDS011;4086;54.412;9.980;2023-03-09T00:00:20;9.10;;;6.17;;
8086;SDS011;4086;54.412;9.980;2023-03-09T00:02:47;8.83;;;6.33;;
8086;SDS011;4086;54.412;9.980;2023-03-09T00:05:14;10.10;;;6.03;;
8086;SDS011;4086;54.412;9.980;2023-03-09T00:07:41;11.27;;;6.63;;
8086;SDS011;4086;54.412;9.980;2023-03-09T00:10:09;8.90;;;6.37;;
8086;SDS011;4086;54.412;9.980;2023-03-09T00:12:37;12.00;;;7.13;;
8086;SDS011;4086;54.412;9.980;2023-03-09T00:15:04;9.57;;;6.87;;
8086;SDS011;4086;54.412;9.980;2023-03-09T00:17:31;10.47;;;6.50;;
8086;SDS011;4086;54.412;9.980;2023-03-09T00:19:58;11.00;;;7.20;;
8086;SDS011;4086;54.412;9.980;2023-03-09T00:22:41;9.87;;;7.03;;
8086;SDS011;4086;54.412;9.980;2023-03-09T00:25:08;12.23;;;7.20;;
8086;SDS011;4086;54.412;9.980;2023-03-09T00:27:39;11.90;;;7.23;;
8086;SDS011;4086;54.412;9.980;2023-03-09T00:30:07;10.63;;;6.90;;
8086;SDS011;4086;54.412;9.980;2023-03-09T00:32:34;11.83;;;7.27;;
8086;SDS011;4086;54.412;9.980;2023-03-09T00:35:00;12.80;;;7.83;;
8086;SDS011;4086;54.412;9.980;2023-03-09T00:37:27;11.13;;;7.33;;
8086;SDS011;4086;54.412;9.980;2023-03-09T00:39:53;10.63;;;6.90;;
8086;SDS011;4086;54.412;9.980;2023-03-09T00:42:19;13.60;;;7.50;;
8086;SDS011;4086;54.412;9.980;2023-03-09T00:44:47;9.87;;;6.77;;
8086;SDS011;4086;54.412;9.980;2023-03-09T00:47:13;10.73;;;7.27;;
8086;SDS011;4086;54.412;9.980;2023-03-09T00:49:40;10.40;;;6.60;;
8086;SDS011;4086;54.412;9.980;2023-03-09T00:52:06;12.10;;;7.47;;
8086;SDS011;4086;54.412;9.980;2023-03-09T00:54:32;11.93;;;7.20;;
8086;SDS011;4086;54.412;9.980;2023-03-09T00:56:59;9.73;;;6.67;;
8086;SDS011;4086;54.412;9.980;2023-03-09T00:59:26;11.23;;;7.30;;
8086;SDS011;4086;54.412;9.980;2023-03-09T01:01:54;10.33;;;6.97;;
8086;SDS011;4086;54.412;9.980;2023-03-09T01:04:21;10.63;;;6.97;;
8086;SDS011;4086;54.412;9.980;2023-03-09T01:06:47;11.30;;;7.10;;
8086;SDS011;4086;54.412;9.980;2023-03-09T01:09:13;9.80;;;6.47;;
8086;SDS011;4086;54.412;9.980;2023-03-09T01:11:40;12.23;;;7.60;;
8086;SDS011;4086;54.412;9.980;2023-03-09T01:14:06;12.50;;;7.67;;
8086;SDS011;4086;54.412;9.980;2023-03-09T01:16:32;11.93;;;7.47;;
8086;SDS011;4086;54.412;9.980;2023-03-09T01:19:00;11.60;;;7.40;;
8086;SDS011;4086;54.412;9.980;2023-03-09T01:21:26;12.57;;;7.13;;
8086;SDS011;4086;54.412;9.980;2023-03-09T01:23:53;13.23;;;7.40;;
8086;SDS011;4086;54.412;9.980;2023-03-09T01:26:19;13.43;;;7.40;;
8086;SDS011;4086;54.412;9.980;2023-03-09T01:28:46;11.10;;;7.10;;
8086;SDS011;4086;54.412;9.980;2023-03-09T01:31:13;11.43;;;6.97;;
8086;SDS011;4086;54.412;9.980;2023-03-09T01:33:40;10.93;;;7.17;;
8086;SDS011;4086;54.412;9.980;2023-03-09T01:36:11;11.83;;;7.40;;
8086;SDS011;4086;54.412;9.980;2023-03-09T01:38:38;11.73;;;7.47;;
8086;SDS011;4086;54.412;9.980;2023-03-09T01:41:05;12.83;;;7.23;;
8086;SDS011;4086;54.412;9.980;2023-03-09T01:43:33;13.87;;;7.57;;
8086;SDS011;4086;54.412;9.980;2023-03-09T01:48:54;10.73;;;6.60;;
8086;SDS011;4086;54.412;9.980;2023-03-09T01:51:24;10.83;;;6.43;;
8086;SDS011;4086;54.412;9.980;2023-03-09T01:53:53;12.20;;;7.20;;
8086;SDS011;4086;54.412;9.980;2023-03-09T01:56:20;12.70;;;7.40;;
8086;SDS011;4086;54.412;9.980;2023-03-09T01:58:48;12.20;;;6.63;;
8086;SDS011;4086;54.412;9.980;2023-03-09T02:01:15;10.33;;;7.10;;
8086;SDS011;4086;54.412;9.980;2023-03-09T02:03:42;12.93;;;7.40;;
8086;SDS011;4086;54.412;9.980;2023-03-09T02:06:11;15.17;;;7.67;;
8086;SDS011;4086;54.412;9.980;2023-03-09T02:08:41;12.17;;;7.50;;
8086;SDS011;4086;54.412;9.980;2023-03-09T02:11:12;12.50;;;7.13;;
8086;SDS011;4086;54.412;9.980;2023-03-09T02:13:40;11.50;;;7.33;;
8086;SDS011;4086;54.412;9.980;2023-03-09T02:16:09;12.17;;;7.47;;
8086;SDS011;4086;54.412;9.980;2023-03-09T02:18:35;14.13;;;7.90;;
8086;SDS011;4086;54.412;9.980;2023-03-09T02:21:06;12.90;;;6.63;;
8086;SDS011;4086;54.412;9.980;2023-03-09T02:23:36;12.83;;;7.17;;
8086;SDS011;4086;54.412;9.980;2023-03-09T02:26:07;11.83;;;7.03;;
8086;SDS011;4086;54.412;9.980;2023-03-09T02:28:38;13.77;;;8.33;;
8086;SDS011;4086;54.412;9.980;2023-03-09T02:31:05;12.83;;;7.00;;
8086;SDS011;4086;54.412;9.980;2023-03-09T02:33:32;12.57;;;7.50;;
8086;SDS011;4086;54.412;9.980;2023-03-09T02:35:59;12.50;;;7.50;;
8086;SDS011;4086;54.412;9.980;2023-03-09T02:38:26;12.60;;;7.30;;
8086;SDS011;4086;54.412;9.980;2023-03-09T02:40:53;14.30;;;7.53;;
8086;SDS011;4086;54.412;9.980;2023-03-09T02:43:21;11.30;;;7.13;;
8086;SDS011;4086;54.412;9.980;2023-03-09T02:45:51;14.93;;;7.77;;
8086;SDS011;4086;54.412;9.980;2023-03-09T02:48:18;15.80;;;7.43;;
8086;SDS011;4086;54.412;9.980;2023-03-09T02:50:44;13.90;;;7.43;;
8086;SDS011;4086;54.412;9.980;2023-03-09T02:53:10;11.97;;;6.97;;
8086;SDS011;4086;54.412;9.980;2023-03-09T02:55:37;11.80;;;7.33;;
8086;SDS011;4086;54.412;9.980;2023-03-09T02:58:03;11.10;;;7.07;;
8086;SDS011;4086;54.412;9.980;2023-03-09T03:00:29;13.77;;;6.97;;
8086;SDS011;4086;54.412;9.980;2023-03-09T03:02:57;12.67;;;7.23;;
8086;SDS011;4086;54.412;9.980;2023-03-09T03:05:24;13.43;;;7.23;;
8086;SDS011;4086;54.412;9.980;2023-03-09T03:07:50;12.30;;;6.87;;
8086;SDS011;4086;54.412;9.980;2023-03-09T03:10:16;9.90;;;6.40;;
8086;SDS011;4086;54.412;9.980;2023-03-09T03:12:43;12.77;;;7.30;;
8086;SDS011;4086;54.412;9.980;2023-03-09T03:15:09;13.33;;;7.27;;
8086;SDS011;4086;54.412;9.980;2023-03-09T03:17:37;16.17;;;7.73;;
8086;SDS011;4086;54.412;9.980;2023-03-09T03:20:06;11.73;;;7.10;;
8086;SDS011;4086;54.412;9.980;2023-03-09T03:22:37;13.10;;;7.80;;
8086;SDS011;4086;54.412;9.980;2023-03-09T03:25:03;11.70;;;7.47;;
8086;SDS011;4086;54.412;9.980;2023-03-09T03:27:31;10.97;;;6.97;;
8086;SDS011;4086;54.412;9.980;2023-03-09T03:29:57;11.83;;;6.97;;
8086;SDS011;4086;54.412;9.980;2023-03-09T03:32:24;10.33;;;6.57;;
8086;SDS011;4086;54.412;9.980;2023-03-09T03:34:50;12.20;;;7.00;;
8086;SDS011;4086;54.412;9.980;2023-03-09T03:37:18;11.63;;;7.00;;
8086;SDS011;4086;54.412;9.980;2023-03-09T03:39:44;11.97;;;7.00;;
8086;SDS011;4086;54.412;9.980;2023-03-09T03:42:11;13.10;;;6.83;;
8086;SDS011;4086;54.412;9.980;2023-03-09T03:44:37;12.00;;;7.57;;
8086;SDS011;4086;54.412;9.980;2023-03-09T03:47:04;13.53;;;7.07;;
8086;SDS011;4086;54.412;9.980;2023-03-09T03:49:31;12.10;;;7.10;;
8086;SDS011;4086;54.412;9.980;2023-03-09T03:51:57;10.17;;;6.60;;
8086;SDS011;4086;54.412;9.980;2023-03-09T03:54:25;12.33;;;6.77;;
8086;SDS011;4086;54.412;9.980;2023-03-09T03:56:51;12.90;;;7.40;;
8086;SDS011;4086;54.412;9.980;2023-03-09T03:59:18;10.67;;;6.63;;
8086;SDS011;4086;54.412;9.980;2023-03-09T04:01:44;12.07;;;6.43;;
8086;SDS011;4086;54.412;9.980;2023-03-09T04:04:11;10.20;;;6.37;;
8086;SDS011;4086;54.412;9.980;2023-03-09T04:06:37;10.47;;;5.87;;
8086;SDS011;4086;54.412;9.980;2023-03-09T04:09:03;12.70;;;6.33;;
8086;SDS011;4086;54.412;9.980;2023-03-09T04:11:31;10.43;;;6.03;;
8086;SDS011;4086;54.412;9.980;2023-03-09T04:13:58;10.00;;;7.03;;
8086;SDS011;4086;54.412;9.980;2023-03-09T04:16:24;9.40;;;6.43;;
8086;SDS011;4086;54.412;9.980;2023-03-09T04:18:50;10.80;;;6.50;;
8086;SDS011;4086;54.412;9.980;2023-03-09T04:21:17;8.90;;;5.97;;
8086;SDS011;4086;54.412;9.980;2023-03-09T04:23:43;10.43;;;6.23;;
8086;SDS011;4086;54.412;9.980;2023-03-09T04:26:09;8.93;;;5.70;;
8086;SDS011;4086;54.412;9.980;2023-03-09T04:28:37;7.97;;;5.40;;
8086;SDS011;4086;54.412;9.980;2023-03-09T04:31:04;7.87;;;5.63;;
8086;SDS011;4086;54.412;9.980;2023-03-09T04:33:30;8.47;;;5.70;;
8086;SDS011;4086;54.412;9.980;2023-03-09T04:35:57;9.60;;;5.37;;
8086;SDS011;4086;54.412;9.980;2023-03-09T04:38:23;9.70;;;6.03;;
8086;SDS011;4086;54.412;9.980;2023-03-09T04:40:49;11.27;;;5.70;;
8086;SDS011;4086;54.412;9.980;2023-03-09T04:43:16;10.17;;;5.87;;
8086;SDS011;4086;54.412;9.980;2023-03-09T04:45:44;9.00;;;5.93;;
8086;SDS011;4086;54.412;9.980;2023-03-09T04:48:10;9.73;;;6.50;;
8086;SDS011;4086;54.412;9.980;2023-03-09T04:50:37;10.30;;;6.40;;
8086;SDS011;4086;54.412;9.980;2023-03-09T04:53:03;9.67;;;6.47;;
8086;SDS011;4086;54.412;9.980;2023-03-09T04:55:30;9.80;;;6.23;;
8086;SDS011;4086;54.412;9.980;2023-03-09T04:57:56;9.93;;;5.93;;
8086;SDS011;4086;54.412;9.980;2023-03-09T05:00:23;9.27;;;5.77;;
8086;SDS011;4086;54.412;9.980;2023-03-09T05:02:51;7.30;;;5.07;;
8086;SDS011;4086;54.412;9.980;2023-03-09T05:05:18;8.93;;;5.80;;
8086;SDS011;4086;54.412;9.980;2023-03-09T05:07:44;8.77;;;5.50;;
8086;SDS011;4086;54.412;9.980;2023-03-09T05:10:11;8.17;;;5.27;;
8086;SDS011;4086;54.412;9.980;2023-03-09T05:12:37;7.80;;;5.20;;
8086;SDS011;4086;54.412;9.980;2023-03-09T05:15:04;8.17;;;4.87;;
8086;SDS011;4086;54.412;9.980;2023-03-09T05:17:32;7.80;;;4.77;;
8086;SDS011;4086;54.412;9.980;2023-03-09T05:19:59;7.03;;;5.03;;
8086;SDS011;4086;54.412;9.980;2023-03-09T05:22:26;6.73;;;4.70;;
8086;SDS011;4086;54.412;9.980;2023-03-09T05:24:52;8.00;;;5.17;;
8086;SDS011;4086;54.412;9.980;2023-03-09T05:27:19;7.47;;;4.80;;
8086;SDS011;4086;54.412;9.980;2023-03-09T05:29:45;8.77;;;5.47;;
8086;SDS011;4086;54.412;9.980;2023-03-09T05:32:11;7.73;;;4.77;;
8086;SDS011;4086;54.412;9.980;2023-03-09T05:34:39;8.87;;;5.07;;
8086;SDS011;4086;54.412;9.980;2023-03-09T05:37:07;8.23;;;5.00;;
8086;SDS011;4086;54.412;9.980;2023-03-09T05:39:34;7.90;;;4.83;;
8086;SDS011;4086;54.412;9.980;2023-03-09T05:42:01;8.30;;;5.20;;
8086;SDS011;4086;54.412;9.980;2023-03-09T05:44:27;7.93;;;5.23;;
8086;SDS011;4086;54.412;9.980;2023-03-09T05:46:53;8.43;;;5.67;;
8086;SDS011;4086;54.412;9.980;2023-03-09T05:49:20;9.47;;;4.93;;
8086;SDS011;4086;54.412;9.980;2023-03-09T05:51:46;7.23;;;5.07;;
8086;SDS011;4086;54.412;9.980;2023-03-09T05:54:14;10.73;;;6.27;;
8086;SDS011;4086;54.412;9.980;2023-03-09T05:56:41;10.37;;;6.00;;
8086;SDS011;4086;54.412;9.980;2023-03-09T05:59:08;9.50;;;5.50;;
8086;SDS011;4086;54.412;9.980;2023-03-09T06:01:34;9.07;;;5.90;;
8086;SDS011;4086;54.412;9.980;2023-03-09T06:04:01;9.20;;;5.50;;
8086;SDS011;4086;54.412;9.980;2023-03-09T06:06:27;9.23;;;5.83;;
8086;SDS011;4086;54.412;9.980;2023-03-09T06:08:54;9.93;;;5.83;;
8086;SDS011;4086;54.412;9.980;2023-03-09T06:11:22;8.90;;;5.07;;
8086;SDS011;4086;54.412;9.980;2023-03-09T06:13:51;7.60;;;5.00;;
8086;SDS011;4086;54.412;9.980;2023-03-09T06:16:18;9.83;;;6.33;;
8086;SDS011;4086;54.412;9.980;2023-03-09T06:18:45;10.37;;;6.73;;
8086;SDS011;4086;54.412;9.980;2023-03-09T06:21:11;10.67;;;6.97;;
8086;SDS011;4086;54.412;9.980;2023-03-09T06:23:38;10.40;;;7.07;;
8086;SDS011;4086;54.412;9.980;2023-03-09T06:26:06;10.83;;;6.73;;
8086;SDS011;4086;54.412;9.980;2023-03-09T06:28:35;9.67;;;7.23;;
8086;SDS011;4086;54.412;9.980;2023-03-09T06:31:04;9.83;;;6.30;;
8086;SDS011;4086;54.412;9.980;2023-03-09T06:33:31;7.97;;;5.80;;
8086;SDS011;4086;54.412;9.980;2023-03-09T06:35:59;10.33;;;6.60;;
8086;SDS011;4086;54.412;9.980;2023-03-09T06:38:25;9.80;;;6.03;;
8086;SDS011;4086;54.412;9.980;2023-03-09T06:40:52;9.97;;;6.53;;
8086;SDS011;4086;54.412;9.980;2023-03-09T06:43:19;8.90;;;6.40;;
8086;SDS011;4086;54.412;9.980;2023-03-09T06:45:46;9.60;;;6.00;;
8086;SDS011;4086;54.412;9.980;2023-03-09T06:48:13;7.20;;;5.57;;
8086;SDS011;4086;54.412;9.980;2023-03-09T06:50:39;8.77;;;5.73;;
8086;SDS011;4086;54.412;9.980;2023-03-09T06:53:08;8.73;;;5.67;;
8086;SDS011;4086;54.412;9.980;2023-03-09T06:55:35;5.73;;;4.77;;
8086;SDS011;4086;54.412;9.980;2023-03-09T06:58:02;7.20;;;4.80;;
8086;SDS011;4086;54.412;9.980;2023-03-09T07:00:28;6.97;;;4.73;;
8086;SDS011;4086;54.412;9.980;2023-03-09T07:02:56;7.03;;;4.97;;
8086;SDS011;4086;54.412;9.980;2023-03-09T07:05:23;7.00;;;4.70;;
8086;SDS011;4086;54.412;9.980;2023-03-09T07:07:49;7.27;;;4.73;;
8086;SDS011;4086;54.412;9.980;2023-03-09T07:10:16;5.77;;;4.37;;
8086;SDS011;4086;54.412;9.980;2023-03-09T07:12:42;5.97;;;4.30;;
8086;SDS011;4086;54.412;9.980;2023-03-09T07:15:10;6.53;;;4.50;;
8086;SDS011;4086;54.412;9.980;2023-03-09T07:17:37;5.50;;;4.43;;
8086;SDS011;4086;54.412;9.980;2023-03-09T07:20:05;5.93;;;4.37;;
8086;SDS011;4086;54.412;9.980;2023-03-09T07:22:32;5.77;;;4.63;;
8086;SDS011;4086;54.412;9.980;2023-03-09T07:24:59;6.77;;;5.20;;
8086;SDS011;4086;54.412;9.980;2023-03-09T07:27:25;7.80;;;6.53;;
8086;SDS011;4086;54.412;9.980;2023-03-09T07:29:51;10.17;;;7.80;;
8086;SDS011;4086;54.412;9.980;2023-03-09T07:32:18;10.40;;;6.50;;
8086;SDS011;4086;54.412;9.980;2023-03-09T07:34:44;8.77;;;5.83;;
8086;SDS011;4086;54.412;9.980;2023-03-09T07:37:12;8.17;;;4.67;;
8086;SDS011;4086;54.412;9.980;2023-03-09T07:39:38;6.47;;;4.73;;
8086;SDS011;4086;54.412;9.980;2023-03-09T07:42:05;5.73;;;4.47;;
8086;SDS011;4086;54.412;9.980;2023-03-09T07:44:32;7.93;;;4.40;;
8086;SDS011;4086;54.412;9.980;2023-03-09T07:46:58;6.17;;;4.43;;
8086;SDS011;4086;54.412;9.980;2023-03-09T07:49:25;6.33;;;4.17;;
8086;SDS011;4086;54.412;9.980;2023-03-09T07:51:51;7.03;;;4.43;;
8086;SDS011;4086;54.412;9.980;2023-03-09T07:54:19;6.07;;;4.60;;
8086;SDS011;4086;54.412;9.980;2023-03-09T07:56:46;6.33;;;4.77;;
8086;SDS011;4086;54.412;9.980;2023-03-09T07:59:16;5.97;;;4.50;;
8086;SDS011;4086;54.412;9.980;2023-03-09T08:01:43;6.93;;;4.27;;
8086;SDS011;4086;54.412;9.980;2023-03-09T08:04:09;7.00;;;4.83;;
8086;SDS011;4086;54.412;9.980;2023-03-09T08:06:38;7.07;;;5.17;;
8086;SDS011;4086;54.412;9.980;2023-03-09T08:09:04;6.90;;;4.70;;
8086;SDS011;4086;54.412;9.980;2023-03-09T08:11:33;7.23;;;4.97;;
8086;SDS011;4086;54.412;9.980;2023-03-09T08:13:59;6.67;;;5.17;;
8086;SDS011;4086;54.412;9.980;2023-03-09T08:16:26;6.40;;;5.00;;
8086;SDS011;4086;54.412;9.980;2023-03-09T08:18:52;9.90;;;5.40;;
8086;SDS011;4086;54.412;9.980;2023-03-09T08:21:19;6.93;;;5.13;;
8086;SDS011;4086;54.412;9.980;2023-03-09T08:23:45;7.17;;;4.57;;
8086;SDS011;4086;54.412;9.980;2023-03-09T08:26:13;6.27;;;4.73;;
8086;SDS011;4086;54.412;9.980;2023-03-09T08:28:41;7.33;;;4.80;;
8086;SDS011;4086;54.412;9.980;2023-03-09T08:31:09;8.57;;;5.60;;
8086;SDS011;4086;54.412;9.980;2023-03-09T08:33:36;7.20;;;4.80;;
8086;SDS011;4086;54.412;9.980;2023-03-09T08:36:09;7.23;;;4.97;;
8086;SDS011;4086;54.412;9.980;2023-03-09T08:38:36;6.47;;;4.73;;
8086;SDS011;4086;54.412;9.980;2023-03-09T08:41:02;9.37;;;5.60;;
8086;SDS011;4086;54.412;9.980;2023-03-09T08:43:29;6.33;;;4.67;;
8086;SDS011;4086;54.412;9.980;2023-03-09T08:45:56;6.83;;;5.13;;
8086;SDS011;4086;54.412;9.980;2023-03-09T08:48:23;7.03;;;5.47;;
8086;SDS011;4086;54.412;9.980;2023-03-09T08:50:49;6.83;;;5.60;;
8086;SDS011;4086;54.412;9.980;2023-03-09T08:53:16;7.70;;;5.30;;
8086;SDS011;4086;54.412;9.980;2023-03-09T08:55:43;7.37;;;5.07;;
8086;SDS011;4086;54.412;9.980;2023-03-09T08:58:09;7.37;;;5.00;;
8086;SDS011;4086;54.412;9.980;2023-03-09T09:00:36;5.67;;;4.57;;
8086;SDS011;4086;54.412;9.980;2023-03-09T09:03:04;7.23;;;4.80;;
8086;SDS011;4086;54.412;9.980;2023-03-09T09:05:30;7.17;;;5.03;;
8086;SDS011;4086;54.412;9.980;2023-03-09T09:07:57;6.80;;;4.90;;
8086;SDS011;4086;54.412;9.980;2023-03-09T09:10:24;7.03;;;5.10;;
8086;SDS011;4086;54.412;9.980;2023-03-09T09:12:50;6.60;;;5.00;;
8086;SDS011;4086;54.412;9.980;2023-03-09T09:15:16;6.63;;;4.60;;
8086;SDS011;4086;54.412;9.980;2023-03-09T09:17:43;6.30;;;4.70;;
8086;SDS011;4086;54.412;9.980;2023-03-09T09:20:11;7.47;;;4.50;;
8086;SDS011;4086;54.412;9.980;2023-03-09T09:22:39;7.23;;;4.63;;
8086;SDS011;4086;54.412;9.980;2023-03-09T09:25:07;7.17;;;4.77;;
8086;SDS011;4086;54.412;9.980;2023-03-09T09:27:34;6.97;;;4.43;;
8086;SDS011;4086;54.412;9.980;2023-03-09T09:30:01;7.47;;;4.30;;
8086;SDS011;4086;54.412;9.980;2023-03-09T09:32:27;5.90;;;4.13;;
8086;SDS011;4086;54.412;9.980;2023-03-09T09:34:54;6.47;;;4.30;;
8086;SDS011;4086;54.412;9.980;2023-03-09T09:37:21;6.03;;;3.90;;
8086;SDS011;4086;54.412;9.980;2023-03-09T09:39:48;6.40;;;4.83;;
8086;SDS011;4086;54.412;9.980;2023-03-09T09:42:19;7.17;;;4.70;;
8086;SDS011;4086;54.412;9.980;2023-03-09T09:44:49;5.63;;;4.20;;
8086;SDS011;4086;54.412;9.980;2023-03-09T09:47:18;6.20;;;4.23;;
8086;SDS011;4086;54.412;9.980;2023-03-09T09:49:47;5.80;;;4.23;;
8086;SDS011;4086;54.412;9.980;2023-03-09T09:52:17;5.87;;;4.50;;
8086;SDS011;4086;54.412;9.980;2023-03-09T09:54:54;5.03;;;4.40;;
8086;SDS011;4086;54.412;9.980;2023-03-09T09:57:23;5.57;;;4.50;;
8086;SDS011;4086;54.412;9.980;2023-03-09T09:59:59;7.47;;;4.37;;
8086;SDS011;4086;54.412;9.980;2023-03-09T10:02:36;5.77;;;4.50;;
8086;SDS011;4086;54.412;9.980;2023-03-09T10:05:07;5.90;;;4.20;;
8086;SDS011;4086;54.412;9.980;2023-03-09T10:07:39;6.10;;;4.37;;
8086;SDS011;4086;54.412;9.980;2023-03-09T10:10:09;7.63;;;4.67;;
8086;SDS011;4086;54.412;9.980;2023-03-09T10:12:37;4.97;;;4.30;;
8086;SDS011;4086;54.412;9.980;2023-03-09T10:15:06;4.43;;;4.03;;
8086;SDS011;4086;54.412;9.980;2023-03-09T10:17:38;6.37;;;4.03;;
8086;SDS011;4086;54.412;9.980;2023-03-09T10:20:10;5.27;;;4.33;;
8086;SDS011;4086;54.412;9.980;2023-03-09T10:22:40;5.97;;;4.07;;
8086;SDS011;4086;54.412;9.980;2023-03-09T10:25:09;6.13;;;4.30;;
8086;SDS011;4086;54.412;9.980;2023-03-09T10:27:38;4.60;;;4.10;;
8086;SDS011;4086;54.412;9.980;2023-03-09T10:30:10;4.53;;;4.13;;
8086;SDS011;4086;54.412;9.980;2023-03-09T10:32:44;5.50;;;4.43;;
8086;SDS011;4086;54.412;9.980;2023-03-09T10:35:21;5.40;;;4.17;;
8086;SDS011;4086;54.412;9.980;2023-03-09T10:37:52;4.93;;;3.70;;
8086;SDS011;4086;54.412;9.980;2023-03-09T10:40:19;5.10;;;4.20;;
8086;SDS011;4086;54.412;9.980;2023-03-09T10:42:47;4.80;;;3.00;;
8086;SDS011;4086;54.412;9.980;2023-03-09T10:45:16;4.83;;;4.00;;
8086;SDS011;4086;54.412;9.980;2023-03-09T10:47:51;4.07;;;3.67;;
8086;SDS011;4086;54.412;9.980;2023-03-09T10:50:20;3.33;;;3.03;;
8086;SDS011;4086;54.412;9.980;2023-03-09T10:52:47;3.70;;;3.40;;
8086;SDS011;4086;54.412;9.980;2023-03-09T10:55:29;4.23;;;3.70;;
8086;SDS011;4086;54.412;9.980;2023-03-09T10:57:59;4.37;;;3.73;;
8086;SDS011;4086;54.412;9.980;2023-03-09T11:00:26;4.07;;;3.43;;
8086;SDS011;4086;54.412;9.980;2023-03-09T11:02:54;6.37;;;4.40;;
8086;SDS011;4086;54.412;9.980;2023-03-09T11:05:22;6.60;;;3.90;;
8086;SDS011;4086;54.412;9.980;2023-03-09T11:07:49;4.23;;;3.63;;
8086;SDS011;4086;54.412;9.980;2023-03-09T11:10:24;4.77;;;3.90;;
8086;SDS011;4086;54.412;9.980;2023-03-09T11:12:53;5.90;;;3.43;;
8086;SDS011;4086;54.412;9.980;2023-03-09T11:15:24;3.93;;;3.00;;
8086;SDS011;4086;54.412;9.980;2023-03-09T11:17:53;4.70;;;3.60;;
8086;SDS011;4086;54.412;9.980;2023-03-09T11:20:22;4.80;;;3.13;;
8086;SDS011;4086;54.412;9.980;2023-03-09T11:22:58;4.37;;;3.23;;
8086;SDS011;4086;54.412;9.980;2023-03-09T11:25:33;3.87;;;2.87;;
8086;SDS011;4086;54.412;9.980;2023-03-09T11:28:10;4.87;;;3.00;;
8086;SDS011;4086;54.412;9.980;2023-03-09T11:30:40;2.67;;;2.47;;
8086;SDS011;4086;54.412;9.980;2023-03-09T11:33:08;5.70;;;3.37;;
8086;SDS011;4086;54.412;9.980;2023-03-09T11:35:36;4.60;;;3.50;;
8086;SDS011;4086;54.412;9.980;2023-03-09T11:38:03;4.13;;;3.73;;
8086;SDS011;4086;54.412;9.980;2023-03-09T11:40:32;3.50;;;3.00;;
8086;SDS011;4086;54.412;9.980;2023-03-09T11:43:02;3.40;;;3.00;;
8086;SDS011;4086;54.412;9.980;2023-03-09T11:45:32;3.40;;;3.10;;
8086;SDS011;4086;54.412;9.980;2023-03-09T11:48:00;5.03;;;3.57;;
8086;SDS011;4086;54.412;9.980;2023-03-09T11:50:30;5.43;;;3.83;;
8086;SDS011;4086;54.412;9.980;2023-03-09T11:53:01;4.33;;;3.23;;
8086;SDS011;4086;54.412;9.980;2023-03-09T11:55:30;4.80;;;3.83;;
8086;SDS011;4086;54.412;9.980;2023-03-09T11:58:02;3.57;;;3.20;;
8086;SDS011;4086;54.412;9.980;2023-03-09T12:00:33;3.63;;;3.20;;
8086;SDS011;4086;54.412;9.980;2023-03-09T12:03:01;3.27;;;2.97;;
8086;SDS011;4086;54.412;9.980;2023-03-09T12:05:32;3.90;;;3.50;;
8086;SDS011;4086;54.412;9.980;2023-03-09T12:08:02;3.50;;;3.20;;
8086;SDS011;4086;54.412;9.980;2023-03-09T12:10:31;3.93;;;3.53;;
8086;SDS011;4086;54.412;9.980;2023-03-09T12:13:02;4.03;;;3.63;;
8086;SDS011;4086;54.412;9.980;2023-03-09T12:15:31;4.30;;;3.60;;
8086;SDS011;4086;54.412;9.980;2023-03-09T12:18:01;4.27;;;3.47;;
8086;SDS011;4086;54.412;9.980;2023-03-09T12:20:30;4.63;;;3.63;;
8086;SDS011;4086;54.412;9.980;2023-03-09T12:22:58;4.00;;;3.57;;
8086;SDS011;4086;54.412;9.980;2023-03-09T12:25:24;4.47;;;4.03;;
8086;SDS011;4086;54.412;9.980;2023-03-09T12:27:52;5.43;;;4.20;;
8086;SDS011;4086;54.412;9.980;2023-03-09T12:30:20;4.40;;;3.80;;
8086;SDS011;4086;54.412;9.980;2023-03-09T12:32:51;5.07;;;3.80;;
8086;SDS011;4086;54.412;9.980;2023-03-09T12:38:22;4.03;;;3.53;;
8086;SDS011;4086;54.412;9.980;2023-03-09T12:40:49;4.93;;;4.03;;
8086;SDS011;4086;54.412;9.980;2023-03-09T12:49:25;5.07;;;4.00;;
8086;SDS011;4086;54.412;9.980;2023-03-09T12:54:40;3.93;;;3.53;;
8086;SDS011;4086;54.412;9.980;2023-03-09T12:57:09;5.30;;;3.97;;
8086;SDS011;4086;54.412;9.980;2023-03-09T12:59:37;4.83;;;3.93;;
8086;SDS011;4086;54.412;9.980;2023-03-09T13:02:17;4.33;;;3.77;;
8086;SDS011;4086;54.412;9.980;2023-03-09T13:07:38;4.07;;;3.67;;
8086;SDS011;4086;54.412;9.980;2023-03-09T13:10:06;4.57;;;3.87;;
8086;SDS011;4086;54.412;9.980;2023-03-09T13:12:44;5.43;;;4.00;;
8086;SDS011;4086;54.412;9.980;2023-03-09T13:15:19;3.90;;;3.50;;
8086;SDS011;4086;54.412;9.980;2023-03-09T13:18:02;6.87;;;4.10;;
8086;SDS011;4086;54.412;9.980;2023-03-09T13:20:40;5.00;;;4.00;;
8086;SDS011;4086;54.412;9.980;2023-03-09T13:23:09;4.23;;;3.83;;
8086;SDS011;4086;54.412;9.980;2023-03-09T13:25:47;4.67;;;4.20;;
8086;SDS011;4086;54.412;9.980;2023-03-09T13:28:22;5.13;;;3.90;;
8086;SDS011;4086;54.412;9.980;2023-03-09T13:30:52;4.87;;;4.33;;
8086;SDS011;4086;54.412;9.980;2023-03-09T13:33:21;4.77;;;4.10;;
8086;SDS011;4086;54.412;9.980;2023-03-09T13:35:52;6.10;;;3.80;;
8086;SDS011;4086;54.412;9.980;2023-03-09T13:38:22;4.83;;;4.00;;
8086;SDS011;4086;54.412;9.980;2023-03-09T13:40:52;4.83;;;4.30;;
8086;SDS011;4086;54.412;9.980;2023-03-09T13:43:20;4.40;;;3.70;;
8086;SDS011;4086;54.412;9.980;2023-03-09T13:45:53;5.10;;;4.27;;
8086;SDS011;4086;54.412;9.980;2023-03-09T13:48:22;4.73;;;4.23;;
8086;SDS011;4086;54.412;9.980;2023-03-09T13:50:48;4.27;;;3.67;;
8086;SDS011;4086;54.412;9.980;2023-03-09T13:53:23;5.33;;;3.87;;
8086;SDS011;4086;54.412;9.980;2023-03-09T13:55:53;5.87;;;5.00;;
8086;SDS011;4086;54.412;9.980;2023-03-09T13:58:21;5.47;;;4.20;;
8086;SDS011;4086;54.412;9.980;2023-03-09T14:00:55;8.47;;;5.13;;
8086;SDS011;4086;54.412;9.980;2023-03-09T14:03:23;7.43;;;4.60;;
8086;SDS011;4086;54.412;9.980;2023-03-09T14:05:56;5.70;;;4.37;;
8086;SDS011;4086;54.412;9.980;2023-03-09T14:08:26;5.23;;;4.13;;
8086;SDS011;4086;54.412;9.980;2023-03-09T14:10:53;6.83;;;4.37;;
8086;SDS011;4086;54.412;9.980;2023-03-09T14:13:20;5.70;;;4.30;;
8086;SDS011;4086;54.412;9.980;2023-03-09T14:15:49;6.87;;;5.00;;
8086;SDS011;4086;54.412;9.980;2023-03-09T14:18:28;6.63;;;4.73;;
8086;SDS011;4086;54.412;9.980;2023-03-09T14:20:58;6.17;;;5.27;;
8086;SDS011;4086;54.412;9.980;2023-03-09T14:23:32;7.27;;;4.90;;
8086;SDS011;4086;54.412;9.980;2023-03-09T14:26:02;7.20;;;5.00;;
8086;SDS011;4086;54.412;9.980;2023-03-09T14:28:30;5.30;;;4.70;;
8086;SDS011;4086;54.412;9.980;2023-03-09T14:31:07;5.60;;;4.83;;
8086;SDS011;4086;54.412;9.980;2023-03-09T14:33:37;5.50;;;4.73;;
8086;SDS011;4086;54.412;9.980;2023-03-09T14:36:07;5.23;;;4.73;;
8086;SDS011;4086;54.412;9.980;2023-03-09T14:38:50;6.33;;;4.97;;
8086;SDS011;4086;54.412;9.980;2023-03-09T14:41:19;5.37;;;4.67;;
8086;SDS011;4086;54.412;9.980;2023-03-09T14:43:46;5.73;;;5.00;;
8086;SDS011;4086;54.412;9.980;2023-03-09T14:46:14;7.07;;;5.50;;
8086;SDS011;4086;54.412;9.980;2023-03-09T14:48:43;5.93;;;4.80;;
8086;SDS011;4086;54.412;9.980;2023-03-09T14:51:12;6.97;;;4.97;;
8086;SDS011;4086;54.412;9.980;2023-03-09T14:53:51;5.87;;;4.90;;
8086;SDS011;4086;54.412;9.980;2023-03-09T14:56:19;5.53;;;4.73;;
8086;SDS011;4086;54.412;9.980;2023-03-09T14:58:46;5.67;;;5.07;;
8086;SDS011;4086;54.412;9.980;2023-03-09T15:01:12;6.17;;;4.67;;
8086;SDS011;4086;54.412;9.980;2023-03-09T15:03:39;6.93;;;5.23;;
8086;SDS011;4086;54.412;9.980;2023-03-09T15:06:06;5.93;;;5.17;;
8086;SDS011;4086;54.412;9.980;2023-03-09T15:08:32;6.27;;;5.40;;
8086;SDS011;4086;54.412;9.980;2023-03-09T15:11:00;7.27;;;5.50;;
8086;SDS011;4086;54.412;9.980;2023-03-09T15:13:26;6.90;;;5.53;;
8086;SDS011;4086;54.412;9.980;2023-03-09T15:15:53;6.80;;;4.80;;
8086;SDS011;4086;54.412;9.980;2023-03-09T15:18:20;7.30;;;5.50;;
8086;SDS011;4086;54.412;9.980;2023-03-09T15:20:46;7.23;;;5.27;;
8086;SDS011;4086;54.412;9.980;2023-03-09T15:23:13;5.97;;;5.20;;
8086;SDS011;4086;54.412;9.980;2023-03-09T15:25:39;6.50;;;5.43;;
8086;SDS011;4086;54.412;9.980;2023-03-09T15:28:09;6.73;;;5.30;;
8086;SDS011;4086;54.412;9.980;2023-03-09T15:30:35;6.10;;;5.40;;
8086;SDS011;4086;54.412;9.980;2023-03-09T15:33:02;5.63;;;4.90;;
8086;SDS011;4086;54.412;9.980;2023-03-09T15:35:29;6.03;;;5.43;;